sensor_id;sensor_type;location;lat;lon;timestamp;temperature;humidity
83019;DHT22;72834;40.104;18.336;2024-02-26T00:00:41;14.10;99.90
83019;DHT22;72834;40.104;18.336;2024-02-26T00:03:07;14.10;99.90
83019;DHT22;72834;40.104;18.336;2024-02-26T00:05:33;14.10;99.90
83019;DHT22;72834;40.104;18.336;2024-02-26T00:08:00;14.00;99.90
83019;DHT22;72834;40.104;18.336;2024-02-26T00:10:26;14.00;99.90
83019;DHT22;72834;40.104;18.336;2024-02-26T00:12:52;14.00;99.90
83019;DHT22;72834;40.104;18.336;2024-02-26T00:15:18;14.00;99.90
83019;DHT22;72834;40.104;18.336;2024-02-26T00:17:45;14.00;99.90
83019;DHT22;72834;40.104;18.336;2024-02-26T00:20:11;14.00;99.90
83019;DHT22;72834;40.104;18.336;2024-02-26T00:22:38;14.00;99.90
83019;DHT22;72834;40.104;18.336;2024-02-26T00:25:04;14.00;99.90
83019;DHT22;72834;40.104;18.336;2024-02-26T00:27:31;14.10;99.90
83019;DHT22;72834;40.104;18.336;2024-02-26T00:29:57;14.10;99.90
83019;DHT22;72834;40.104;18.336;2024-02-26T00:32:23;14.10;99.90
83019;DHT22;72834;40.104;18.336;2024-02-26T00:34:49;14.10;99.90
83019;DHT22;72834;40.104;18.336;2024-02-26T00:37:16;14.10;99.90
83019;DHT22;72834;40.104;18.336;2024-02-26T00:39:42;14.10;99.90
83019;DHT22;72834;40.104;18.336;2024-02-26T00:42:08;14.10;99.90
83019;DHT22;72834;40.104;18.336;2024-02-26T00:44:35;14.10;99.90
83019;DHT22;72834;40.104;18.336;2024-02-26T00:47:01;14.10;99.90
83019;DHT22;72834;40.104;18.336;2024-02-26T00:49:28;14.10;99.90
83019;DHT22;72834;40.104;18.336;2024-02-26T00:51:54;14.10;99.90
83019;DHT22;72834;40.104;18.336;2024-02-26T00:54:20;14.00;99.90
83019;DHT22;72834;40.104;18.336;2024-02-26T00:56:46;14.00;99.90
83019;DHT22;72834;40.104;18.336;2024-02-26T00:59:13;14.00;99.90
83019;DHT22;72834;40.104;18.336;2024-02-26T01:01:39;14.00;99.90
83019;DHT22;72834;40.104;18.336;2024-02-26T01:04:05;13.90;99.90
83019;DHT22;72834;40.104;18.336;2024-02-26T01:06:31;13.80;99.90
83019;DHT22;72834;40.104;18.336;2024-02-26T01:08:58;13.70;99.90
83019;DHT22;72834;40.104;18.336;2024-02-26T01:11:24;13.70;99.90
83019;DHT22;72834;40.104;18.336;2024-02-26T01:13:50;13.70;99.90
83019;DHT22;72834;40.104;18.336;2024-02-26T01:16:23;13.60;99.90
83019;DHT22;72834;40.104;18.336;2024-02-26T01:18:49;13.60;99.90
83019;DHT22;72834;40.104;18.336;2024-02-26T01:21:16;13.60;99.90
83019;DHT22;72834;40.104;18.336;2024-02-26T01:23:42;13.70;99.90
83019;DHT22;72834;40.104;18.336;2024-02-26T01:26:08;13.60;99.90
83019;DHT22;72834;40.104;18.336;2024-02-26T01:28:35;13.70;99.90
83019;DHT22;72834;40.104;18.336;2024-02-26T01:31:01;13.70;99.90
83019;DHT22;72834;40.104;18.336;2024-02-26T01:33:27;13.60;99.90
83019;DHT22;72834;40.104;18.336;2024-02-26T01:35:53;13.60;99.90
83019;DHT22;72834;40.104;18.336;2024-02-26T01:38:20;13.50;99.90
83019;DHT22;72834;40.104;18.336;2024-02-26T01:40:46;13.50;99.90
83019;DHT22;72834;40.104;18.336;2024-02-26T01:43:12;13.50;99.90
83019;DHT22;72834;40.104;18.336;2024-02-26T01:45:38;13.50;99.90
83019;DHT22;72834;40.104;18.336;2024-02-26T01:48:05;13.50;99.90
83019;DHT22;72834;40.104;18.336;2024-02-26T01:50:31;13.40;99.90
83019;DHT22;72834;40.104;18.336;2024-02-26T01:53:00;13.40;99.90
83019;DHT22;72834;40.104;18.336;2024-02-26T01:55:27;13.30;99.90
83019;DHT22;72834;40.104;18.336;2024-02-26T01:57:53;13.20;99.90
83019;DHT22;72834;40.104;18.336;2024-02-26T02:03:24;13.20;99.90
83019;DHT22;72834;40.104;18.336;2024-02-26T02:05:51;13.20;99.90
83019;DHT22;72834;40.104;18.336;2024-02-26T02:08:17;13.20;99.90
83019;DHT22;72834;40.104;18.336;2024-02-26T02:10:45;13.20;99.90
83019;DHT22;72834;40.104;18.336;2024-02-26T02:13:14;13.20;99.90
83019;DHT22;72834;40.104;18.336;2024-02-26T02:15:40;13.20;99.90
83019;DHT22;72834;40.104;18.336;2024-02-26T02:18:06;13.20;99.90
83019;DHT22;72834;40.104;18.336;2024-02-26T02:20:33;13.20;99.90
83019;DHT22;72834;40.104;18.336;2024-02-26T02:23:00;13.20;99.90
83019;DHT22;72834;40.104;18.336;2024-02-26T02:25:26;13.20;99.90
83019;DHT22;72834;40.104;18.336;2024-02-26T02:27:54;13.20;99.90
83019;DHT22;72834;40.104;18.336;2024-02-26T02:30:26;13.20;99.90
83019;DHT22;72834;40.104;18.336;2024-02-26T02:32:54;13.20;99.90
83019;DHT22;72834;40.104;18.336;2024-02-26T02:35:21;13.10;99.90
83019;DHT22;72834;40.104;18.336;2024-02-26T02:37:47;13.10;99.90
83019;DHT22;72834;40.104;18.336;2024-02-26T02:40:14;13.10;99.90
83019;DHT22;72834;40.104;18.336;2024-02-26T02:42:40;13.10;99.90
83019;DHT22;72834;40.104;18.336;2024-02-26T02:45:06;13.20;99.90
83019;DHT22;72834;40.104;18.336;2024-02-26T02:47:36;13.20;99.90
83019;DHT22;72834;40.104;18.336;2024-02-26T02:50:04;13.10;99.90
83019;DHT22;72834;40.104;18.336;2024-02-26T02:52:30;13.10;99.90
83019;DHT22;72834;40.104;18.336;2024-02-26T02:54:57;13.10;99.90
83019;DHT22;72834;40.104;18.336;2024-02-26T02:57:24;13.10;99.90
83019;DHT22;72834;40.104;18.336;2024-02-26T02:59:50;13.00;99.90
83019;DHT22;72834;40.104;18.336;2024-02-26T03:02:16;13.00;99.90
83019;DHT22;72834;40.104;18.336;2024-02-26T03:04:42;13.00;99.90
83019;DHT22;72834;40.104;18.336;2024-02-26T03:07:09;13.00;99.90
83019;DHT22;72834;40.104;18.336;2024-02-26T03:09:36;13.00;99.90
83019;DHT22;72834;40.104;18.336;2024-02-26T03:12:03;13.00;99.90
83019;DHT22;72834;40.104;18.336;2024-02-26T03:14:29;13.00;99.90
83019;DHT22;72834;40.104;18.336;2024-02-26T03:16:55;13.00;99.90
83019;DHT22;72834;40.104;18.336;2024-02-26T03:19:22;13.00;99.90
83019;DHT22;72834;40.104;18.336;2024-02-26T03:21:49;13.10;99.90
83019;DHT22;72834;40.104;18.336;2024-02-26T03:24:15;13.00;99.90
83019;DHT22;72834;40.104;18.336;2024-02-26T03:26:41;13.10;99.90
83019;DHT22;72834;40.104;18.336;2024-02-26T03:29:08;13.10;99.90
83019;DHT22;72834;40.104;18.336;2024-02-26T03:31:34;13.10;99.90
83019;DHT22;72834;40.104;18.336;2024-02-26T03:34:00;13.10;99.90
83019;DHT22;72834;40.104;18.336;2024-02-26T03:36:26;13.10;99.90
83019;DHT22;72834;40.104;18.336;2024-02-26T03:38:53;13.10;99.90
83019;DHT22;72834;40.104;18.336;2024-02-26T03:41:19;13.10;99.90
83019;DHT22;72834;40.104;18.336;2024-02-26T03:43:45;13.10;99.90
83019;DHT22;72834;40.104;18.336;2024-02-26T03:46:11;13.10;99.90
83019;DHT22;72834;40.104;18.336;2024-02-26T03:48:41;13.10;99.90
83019;DHT22;72834;40.104;18.336;2024-02-26T03:51:09;13.10;99.90
83019;DHT22;72834;40.104;18.336;2024-02-26T03:53:38;13.10;99.90
83019;DHT22;72834;40.104;18.336;2024-02-26T03:56:05;13.10;99.90
83019;DHT22;72834;40.104;18.336;2024-02-26T03:58:32;13.10;99.90
83019;DHT22;72834;40.104;18.336;2024-02-26T04:01:00;13.10;99.90
83019;DHT22;72834;40.104;18.336;2024-02-26T04:03:26;13.10;99.90
83019;DHT22;72834;40.104;18.336;2024-02-26T04:05:52;13.10;99.90
83019;DHT22;72834;40.104;18.336;2024-02-26T04:08:19;13.10;99.90
83019;DHT22;72834;40.104;18.336;2024-02-26T04:10:45;13.10;99.90
83019;DHT22;72834;40.104;18.336;2024-02-26T04:13:11;13.10;99.90
83019;DHT22;72834;40.104;18.336;2024-02-26T04:15:37;13.10;99.90
83019;DHT22;72834;40.104;18.336;2024-02-26T04:18:03;13.20;99.90
83019;DHT22;72834;40.104;18.336;2024-02-26T04:20:30;13.20;99.90
83019;DHT22;72834;40.104;18.336;2024-02-26T04:22:56;13.20;99.90
83019;DHT22;72834;40.104;18.336;2024-02-26T04:25:22;13.20;99.90
83019;DHT22;72834;40.104;18.336;2024-02-26T04:27:49;13.20;99.90
83019;DHT22;72834;40.104;18.336;2024-02-26T04:30:15;13.20;99.90
83019;DHT22;72834;40.104;18.336;2024-02-26T04:32:43;13.20;99.90
83019;DHT22;72834;40.104;18.336;2024-02-26T04:35:09;13.20;99.90
83019;DHT22;72834;40.104;18.336;2024-02-26T04:37:35;13.20;99.90
83019;DHT22;72834;40.104;18.336;2024-02-26T04:40:02;13.20;99.90
83019;DHT22;72834;40.104;18.336;2024-02-26T04:42:28;13.20;99.90
83019;DHT22;72834;40.104;18.336;2024-02-26T04:44:55;13.20;99.90
83019;DHT22;72834;40.104;18.336;2024-02-26T04:47:21;13.10;99.90
83019;DHT22;72834;40.104;18.336;2024-02-26T04:49:49;13.20;99.90
83019;DHT22;72834;40.104;18.336;2024-02-26T04:52:16;13.10;99.90
83019;DHT22;72834;40.104;18.336;2024-02-26T04:54:42;13.10;99.90
83019;DHT22;72834;40.104;18.336;2024-02-26T04:57:08;13.10;99.90
83019;DHT22;72834;40.104;18.336;2024-02-26T04:59:35;13.10;99.90
83019;DHT22;72834;40.104;18.336;2024-02-26T05:02:01;13.10;99.90
83019;DHT22;72834;40.104;18.336;2024-02-26T05:04:27;13.00;99.90
83019;DHT22;72834;40.104;18.336;2024-02-26T05:06:53;13.00;99.90
83019;DHT22;72834;40.104;18.336;2024-02-26T05:09:19;13.00;99.90
83019;DHT22;72834;40.104;18.336;2024-02-26T05:11:46;13.00;99.90
83019;DHT22;72834;40.104;18.336;2024-02-26T05:14:12;13.00;99.90
83019;DHT22;72834;40.104;18.336;2024-02-26T05:16:38;13.00;99.90
83019;DHT22;72834;40.104;18.336;2024-02-26T05:19:05;13.00;99.90
83019;DHT22;72834;40.104;18.336;2024-02-26T05:21:32;13.00;99.90
83019;DHT22;72834;40.104;18.336;2024-02-26T05:23:58;12.90;99.90
83019;DHT22;72834;40.104;18.336;2024-02-26T05:26:24;12.90;99.90
83019;DHT22;72834;40.104;18.336;2024-02-26T05:28:51;12.90;99.90
83019;DHT22;72834;40.104;18.336;2024-02-26T05:31:18;13.00;99.90
83019;DHT22;72834;40.104;18.336;2024-02-26T05:33:45;13.00;99.90
83019;DHT22;72834;40.104;18.336;2024-02-26T05:36:18;13.00;99.90
83019;DHT22;72834;40.104;18.336;2024-02-26T05:38:45;13.00;99.90
83019;DHT22;72834;40.104;18.336;2024-02-26T05:41:12;13.00;99.90
83019;DHT22;72834;40.104;18.336;2024-02-26T05:43:38;13.00;99.90
83019;DHT22;72834;40.104;18.336;2024-02-26T05:46:05;13.10;99.90
83019;DHT22;72834;40.104;18.336;2024-02-26T05:48:31;13.10;99.90
83019;DHT22;72834;40.104;18.336;2024-02-26T05:50:58;13.10;99.90
83019;DHT22;72834;40.104;18.336;2024-02-26T05:53:24;13.10;99.90
83019;DHT22;72834;40.104;18.336;2024-02-26T05:55:50;13.20;99.90
83019;DHT22;72834;40.104;18.336;2024-02-26T05:58:17;13.20;99.90
83019;DHT22;72834;40.104;18.336;2024-02-26T06:00:43;13.20;99.90
83019;DHT22;72834;40.104;18.336;2024-02-26T06:03:10;13.20;99.90
83019;DHT22;72834;40.104;18.336;2024-02-26T06:05:36;13.20;99.90
83019;DHT22;72834;40.104;18.336;2024-02-26T06:08:02;13.20;99.90
83019;DHT22;72834;40.104;18.336;2024-02-26T06:10:29;13.20;99.90
83019;DHT22;72834;40.104;18.336;2024-02-26T06:12:55;13.30;99.90
83019;DHT22;72834;40.104;18.336;2024-02-26T06:15:21;13.30;99.90
83019;DHT22;72834;40.104;18.336;2024-02-26T06:17:48;13.30;99.90
83019;DHT22;72834;40.104;18.336;2024-02-26T06:20:14;13.30;99.90
83019;DHT22;72834;40.104;18.336;2024-02-26T06:22:41;13.30;99.90
83019;DHT22;72834;40.104;18.336;2024-02-26T06:25:07;13.30;99.90
83019;DHT22;72834;40.104;18.336;2024-02-26T06:27:34;13.40;99.90
83019;DHT22;72834;40.104;18.336;2024-02-26T06:30:01;13.40;99.90
83019;DHT22;72834;40.104;18.336;2024-02-26T06:32:27;13.40;99.90
83019;DHT22;72834;40.104;18.336;2024-02-26T06:34:55;13.40;99.90
83019;DHT22;72834;40.104;18.336;2024-02-26T06:37:22;13.40;99.90
83019;DHT22;72834;40.104;18.336;2024-02-26T06:39:48;13.40;99.90
83019;DHT22;72834;40.104;18.336;2024-02-26T06:42:15;13.40;99.90
83019;DHT22;72834;40.104;18.336;2024-02-26T06:44:41;13.40;99.90
83019;DHT22;72834;40.104;18.336;2024-02-26T06:47:07;13.50;99.90
83019;DHT22;72834;40.104;18.336;2024-02-26T06:49:33;13.50;99.90
83019;DHT22;72834;40.104;18.336;2024-02-26T06:51:59;13.50;99.90
83019;DHT22;72834;40.104;18.336;2024-02-26T06:54:26;13.50;99.90
83019;DHT22;72834;40.104;18.336;2024-02-26T06:56:52;13.50;99.90
83019;DHT22;72834;40.104;18.336;2024-02-26T06:59:19;13.50;99.90
83019;DHT22;72834;40.104;18.336;2024-02-26T07:01:46;13.50;99.90
83019;DHT22;72834;40.104;18.336;2024-02-26T07:04:12;13.60;99.90
83019;DHT22;72834;40.104;18.336;2024-02-26T07:06:39;13.60;99.90
83019;DHT22;72834;40.104;18.336;2024-02-26T07:09:05;13.60;99.90
83019;DHT22;72834;40.104;18.336;2024-02-26T07:11:32;13.70;99.90
83019;DHT22;72834;40.104;18.336;2024-02-26T07:13:58;13.70;99.90
83019;DHT22;72834;40.104;18.336;2024-02-26T07:16:24;13.70;99.90
83019;DHT22;72834;40.104;18.336;2024-02-26T07:18:50;13.80;99.90
83019;DHT22;72834;40.104;18.336;2024-02-26T07:21:16;13.80;99.90
83019;DHT22;72834;40.104;18.336;2024-02-26T07:23:43;13.90;99.90
83019;DHT22;72834;40.104;18.336;2024-02-26T07:26:09;14.00;99.90
83019;DHT22;72834;40.104;18.336;2024-02-26T07:28:38;14.00;99.90
83019;DHT22;72834;40.104;18.336;2024-02-26T07:31:04;14.10;99.90
83019;DHT22;72834;40.104;18.336;2024-02-26T07:33:30;14.10;99.90
83019;DHT22;72834;40.104;18.336;2024-02-26T07:35:57;14.20;99.90
83019;DHT22;72834;40.104;18.336;2024-02-26T07:38:23;14.20;99.90
83019;DHT22;72834;40.104;18.336;2024-02-26T07:40:50;14.30;99.90
83019;DHT22;72834;40.104;18.336;2024-02-26T07:43:16;14.40;99.90
83019;DHT22;72834;40.104;18.336;2024-02-26T07:45:42;14.40;99.90
83019;DHT22;72834;40.104;18.336;2024-02-26T07:48:08;14.50;99.90
83019;DHT22;72834;40.104;18.336;2024-02-26T07:50:34;14.50;99.90
83019;DHT22;72834;40.104;18.336;2024-02-26T07:53:01;14.60;99.90
83019;DHT22;72834;40.104;18.336;2024-02-26T07:55:27;14.60;99.90
83019;DHT22;72834;40.104;18.336;2024-02-26T07:57:53;14.60;99.90
83019;DHT22;72834;40.104;18.336;2024-02-26T08:00:20;14.60;99.90
83019;DHT22;72834;40.104;18.336;2024-02-26T08:02:46;14.70;99.90
83019;DHT22;72834;40.104;18.336;2024-02-26T08:05:13;14.70;99.90
83019;DHT22;72834;40.104;18.336;2024-02-26T08:07:39;14.80;99.90
83019;DHT22;72834;40.104;18.336;2024-02-26T08:10:06;15.00;99.90
83019;DHT22;72834;40.104;18.336;2024-02-26T08:12:32;15.10;99.90
83019;DHT22;72834;40.104;18.336;2024-02-26T08:14:59;15.20;99.90
83019;DHT22;72834;40.104;18.336;2024-02-26T08:17:26;15.30;99.90
83019;DHT22;72834;40.104;18.336;2024-02-26T08:19:53;15.30;99.90
83019;DHT22;72834;40.104;18.336;2024-02-26T08:22:19;15.30;99.90
83019;DHT22;72834;40.104;18.336;2024-02-26T08:24:46;15.30;99.90
83019;DHT22;72834;40.104;18.336;2024-02-26T08:27:12;15.30;99.90
83019;DHT22;72834;40.104;18.336;2024-02-26T08:29:39;15.20;99.90
83019;DHT22;72834;40.104;18.336;2024-02-26T08:32:06;15.30;99.90
83019;DHT22;72834;40.104;18.336;2024-02-26T08:34:33;15.30;99.90
83019;DHT22;72834;40.104;18.336;2024-02-26T08:36:59;15.40;99.90
83019;DHT22;72834;40.104;18.336;2024-02-26T08:39:25;15.40;99.90
83019;DHT22;72834;40.104;18.336;2024-02-26T08:41:52;15.30;99.90
83019;DHT22;72834;40.104;18.336;2024-02-26T08:44:18;15.30;99.90
83019;DHT22;72834;40.104;18.336;2024-02-26T08:46:44;15.30;99.90
83019;DHT22;72834;40.104;18.336;2024-02-26T08:49:12;15.30;99.90
83019;DHT22;72834;40.104;18.336;2024-02-26T08:51:42;15.40;99.90
83019;DHT22;72834;40.104;18.336;2024-02-26T08:54:09;15.50;99.90
83019;DHT22;72834;40.104;18.336;2024-02-26T08:56:36;15.60;99.90
83019;DHT22;72834;40.104;18.336;2024-02-26T08:59:03;15.60;99.90
83019;DHT22;72834;40.104;18.336;2024-02-26T09:01:31;15.60;99.90
83019;DHT22;72834;40.104;18.336;2024-02-26T09:03:57;15.60;99.90
83019;DHT22;72834;40.104;18.336;2024-02-26T09:06:23;15.60;99.90
83019;DHT22;72834;40.104;18.336;2024-02-26T09:08:50;15.60;99.90
83019;DHT22;72834;40.104;18.336;2024-02-26T09:11:16;15.80;99.90
83019;DHT22;72834;40.104;18.336;2024-02-26T09:13:42;15.90;99.90
83019;DHT22;72834;40.104;18.336;2024-02-26T09:16:09;15.90;99.90
83019;DHT22;72834;40.104;18.336;2024-02-26T09:18:35;15.90;99.90
83019;DHT22;72834;40.104;18.336;2024-02-26T09:21:04;15.90;99.90
83019;DHT22;72834;40.104;18.336;2024-02-26T09:23:32;15.90;99.90
83019;DHT22;72834;40.104;18.336;2024-02-26T09:25:58;15.80;99.90
83019;DHT22;72834;40.104;18.336;2024-02-26T09:28:25;15.80;99.90
83019;DHT22;72834;40.104;18.336;2024-02-26T09:30:51;15.80;99.90
83019;DHT22;72834;40.104;18.336;2024-02-26T09:33:17;15.90;99.90
83019;DHT22;72834;40.104;18.336;2024-02-26T09:35:43;16.00;99.90
83019;DHT22;72834;40.104;18.336;2024-02-26T09:38:10;16.10;99.90
83019;DHT22;72834;40.104;18.336;2024-02-26T09:40:36;16.20;99.90
83019;DHT22;72834;40.104;18.336;2024-02-26T09:43:05;16.30;99.90
83019;DHT22;72834;40.104;18.336;2024-02-26T09:45:33;16.40;99.90
83019;DHT22;72834;40.104;18.336;2024-02-26T09:48:02;16.30;99.90
83019;DHT22;72834;40.104;18.336;2024-02-26T09:50:30;16.40;99.90
83019;DHT22;72834;40.104;18.336;2024-02-26T09:52:56;16.40;99.90
83019;DHT22;72834;40.104;18.336;2024-02-26T09:55:25;16.50;99.90
83019;DHT22;72834;40.104;18.336;2024-02-26T09:57:51;16.50;99.90
83019;DHT22;72834;40.104;18.336;2024-02-26T10:00:20;16.50;99.90
83019;DHT22;72834;40.104;18.336;2024-02-26T10:02:47;16.50;99.90
83019;DHT22;72834;40.104;18.336;2024-02-26T10:05:17;16.60;99.90
83019;DHT22;72834;40.104;18.336;2024-02-26T10:07:45;16.50;99.90
83019;DHT22;72834;40.104;18.336;2024-02-26T10:10:16;16.50;99.90
83019;DHT22;72834;40.104;18.336;2024-02-26T10:12:43;16.70;99.90
83019;DHT22;72834;40.104;18.336;2024-02-26T10:15:09;16.60;99.90
83019;DHT22;72834;40.104;18.336;2024-02-26T10:17:35;16.70;99.90
83019;DHT22;72834;40.104;18.336;2024-02-26T10:22:41;16.70;99.90
83019;DHT22;72834;40.104;18.336;2024-02-26T10:25:07;16.70;99.90
83019;DHT22;72834;40.104;18.336;2024-02-26T10:27:34;16.50;99.90
83019;DHT22;72834;40.104;18.336;2024-02-26T10:30:13;16.60;99.90
83019;DHT22;72834;40.104;18.336;2024-02-26T10:32:43;16.80;99.90
83019;DHT22;72834;40.104;18.336;2024-02-26T10:35:10;16.90;99.90
83019;DHT22;72834;40.104;18.336;2024-02-26T10:37:36;16.90;99.90
83019;DHT22;72834;40.104;18.336;2024-02-26T10:40:02;17.10;99.90
83019;DHT22;72834;40.104;18.336;2024-02-26T10:42:30;17.10;99.90
83019;DHT22;72834;40.104;18.336;2024-02-26T10:44:58;17.30;99.90
83019;DHT22;72834;40.104;18.336;2024-02-26T10:47:24;17.40;99.90
83019;DHT22;72834;40.104;18.336;2024-02-26T10:49:51;17.40;99.90
83019;DHT22;72834;40.104;18.336;2024-02-26T10:52:19;17.40;99.90
83019;DHT22;72834;40.104;18.336;2024-02-26T10:54:47;17.50;99.90
83019;DHT22;72834;40.104;18.336;2024-02-26T10:57:16;17.80;99.90
83019;DHT22;72834;40.104;18.336;2024-02-26T10:59:44;18.00;99.90
83019;DHT22;72834;40.104;18.336;2024-02-26T11:02:10;18.20;99.90
83019;DHT22;72834;40.104;18.336;2024-02-26T11:04:38;18.30;99.90
83019;DHT22;72834;40.104;18.336;2024-02-26T11:07:06;18.30;99.90
83019;DHT22;72834;40.104;18.336;2024-02-26T11:09:34;18.50;99.90
83019;DHT22;72834;40.104;18.336;2024-02-26T11:12:02;18.90;99.90
83019;DHT22;72834;40.104;18.336;2024-02-26T11:14:34;19.30;99.90
83019;DHT22;72834;40.104;18.336;2024-02-26T11:17:00;19.80;99.90
83019;DHT22;72834;40.104;18.336;2024-02-26T11:19:27;20.10;99.90
83019;DHT22;72834;40.104;18.336;2024-02-26T11:21:55;20.20;99.90
83019;DHT22;72834;40.104;18.336;2024-02-26T11:24:22;20.10;99.90
83019;DHT22;72834;40.104;18.336;2024-02-26T11:26:54;20.20;99.90
83019;DHT22;72834;40.104;18.336;2024-02-26T11:29:32;20.10;99.90
83019;DHT22;72834;40.104;18.336;2024-02-26T11:32:00;20.30;99.90
83019;DHT22;72834;40.104;18.336;2024-02-26T11:34:27;20.60;99.90
83019;DHT22;72834;40.104;18.336;2024-02-26T11:36:54;20.60;99.90
83019;DHT22;72834;40.104;18.336;2024-02-26T11:39:20;20.60;99.90
83019;DHT22;72834;40.104;18.336;2024-02-26T11:41:47;20.70;99.90
83019;DHT22;72834;40.104;18.336;2024-02-26T11:44:13;20.90;99.90
83019;DHT22;72834;40.104;18.336;2024-02-26T11:46:40;21.20;99.90
83019;DHT22;72834;40.104;18.336;2024-02-26T11:51:56;21.50;99.90
83019;DHT22;72834;40.104;18.336;2024-02-26T11:54:48;21.70;99.90
83019;DHT22;72834;40.104;18.336;2024-02-26T12:02:44;21.70;99.90
83019;DHT22;72834;40.104;18.336;2024-02-26T12:05:19;21.70;99.90
83019;DHT22;72834;40.104;18.336;2024-02-26T12:10:30;21.60;99.90
83019;DHT22;72834;40.104;18.336;2024-02-26T12:13:07;21.70;99.90
83019;DHT22;72834;40.104;18.336;2024-02-26T12:15:43;21.70;99.90
83019;DHT22;72834;40.104;18.336;2024-02-26T12:18:15;21.80;99.90
83019;DHT22;72834;40.104;18.336;2024-02-26T12:20:42;22.00;99.90
83019;DHT22;72834;40.104;18.336;2024-02-26T12:23:15;22.00;99.90
83019;DHT22;72834;40.104;18.336;2024-02-26T12:25:43;21.90;99.90
83019;DHT22;72834;40.104;18.336;2024-02-26T12:28:10;21.70;99.90
83019;DHT22;72834;40.104;18.336;2024-02-26T12:30:37;21.60;99.90
83019;DHT22;72834;40.104;18.336;2024-02-26T12:33:03;21.60;99.90
83019;DHT22;72834;40.104;18.336;2024-02-26T12:35:30;21.70;99.90
83019;DHT22;72834;40.104;18.336;2024-02-26T12:37:58;21.50;99.90
83019;DHT22;72834;40.104;18.336;2024-02-26T12:40:24;21.40;99.90
83019;DHT22;72834;40.104;18.336;2024-02-26T12:42:54;21.40;99.90
83019;DHT22;72834;40.104;18.336;2024-02-26T12:45:21;21.20;99.90
83019;DHT22;72834;40.104;18.336;2024-02-26T12:47:47;20.90;99.90
83019;DHT22;72834;40.104;18.336;2024-02-26T12:50:15;21.00;99.90
83019;DHT22;72834;40.104;18.336;2024-02-26T12:52:46;21.00;99.90
83019;DHT22;72834;40.104;18.336;2024-02-26T12:55:18;20.60;99.90
83019;DHT22;72834;40.104;18.336;2024-02-26T12:57:46;20.50;99.90
83019;DHT22;72834;40.104;18.336;2024-02-26T13:00:24;20.20;99.90
83019;DHT22;72834;40.104;18.336;2024-02-26T13:02:51;19.90;99.90
83019;DHT22;72834;40.104;18.336;2024-02-26T13:05:18;19.70;99.90
83019;DHT22;72834;40.104;18.336;2024-02-26T13:07:46;19.40;99.90
83019;DHT22;72834;40.104;18.336;2024-02-26T13:10:16;19.00;99.90
83019;DHT22;72834;40.104;18.336;2024-02-26T13:12:45;18.80;99.90
83019;DHT22;72834;40.104;18.336;2024-02-26T13:15:17;18.60;99.90
83019;DHT22;72834;40.104;18.336;2024-02-26T13:17:44;18.50;99.90
83019;DHT22;72834;40.104;18.336;2024-02-26T13:20:11;18.40;99.90
83019;DHT22;72834;40.104;18.336;2024-02-26T13:22:38;18.30;99.90
83019;DHT22;72834;40.104;18.336;2024-02-26T13:25:05;18.30;99.90
83019;DHT22;72834;40.104;18.336;2024-02-26T13:27:34;18.20;99.90
83019;DHT22;72834;40.104;18.336;2024-02-26T13:30:11;18.20;99.90
83019;DHT22;72834;40.104;18.336;2024-02-26T13:32:39;18.10;99.90
83019;DHT22;72834;40.104;18.336;2024-02-26T13:35:12;18.00;99.90
83019;DHT22;72834;40.104;18.336;2024-02-26T13:37:40;18.10;99.90
83019;DHT22;72834;40.104;18.336;2024-02-26T13:40:11;18.00;99.90
83019;DHT22;72834;40.104;18.336;2024-02-26T13:42:43;18.00;99.90
83019;DHT22;72834;40.104;18.336;2024-02-26T13:45:16;17.90;99.90
83019;DHT22;72834;40.104;18.336;2024-02-26T13:47:42;17.90;99.90
83019;DHT22;72834;40.104;18.336;2024-02-26T13:50:10;17.80;99.90
83019;DHT22;72834;40.104;18.336;2024-02-26T13:52:37;17.70;99.90
83019;DHT22;72834;40.104;18.336;2024-02-26T13:55:03;17.70;99.90
83019;DHT22;72834;40.104;18.336;2024-02-26T13:57:29;17.70;99.90
83019;DHT22;72834;40.104;18.336;2024-02-26T13:59:56;17.70;99.90
83019;DHT22;72834;40.104;18.336;2024-02-26T14:02:22;17.80;99.90
83019;DHT22;72834;40.104;18.336;2024-02-26T14:04:48;17.80;99.90
83019;DHT22;72834;40.104;18.336;2024-02-26T14:07:15;17.80;99.90
83019;DHT22;72834;40.104;18.336;2024-02-26T14:09:43;17.80;99.90
83019;DHT22;72834;40.104;18.336;2024-02-26T14:12:10;17.80;99.90
83019;DHT22;72834;40.104;18.336;2024-02-26T14:14:37;17.80;99.90
83019;DHT22;72834;40.104;18.336;2024-02-26T14:17:05;17.90;99.90
83019;DHT22;72834;40.104;18.336;2024-02-26T14:19:31;17.90;99.90
83019;DHT22;72834;40.104;18.336;2024-02-26T14:21:58;17.90;99.90
83019;DHT22;72834;40.104;18.336;2024-02-26T14:24:24;17.90;99.90
83019;DHT22;72834;40.104;18.336;2024-02-26T14:26:51;17.90;99.90
83019;DHT22;72834;40.104;18.336;2024-02-26T14:29:17;17.90;99.90
83019;DHT22;72834;40.104;18.336;2024-02-26T14:31:43;17.80;99.90
83019;DHT22;72834;40.104;18.336;2024-02-26T14:34:09;17.90;99.90
83019;DHT22;72834;40.104;18.336;2024-02-26T14:36:38;17.80;99.90
83019;DHT22;72834;40.104;18.336;2024-02-26T14:39:13;17.80;99.90
83019;DHT22;72834;40.104;18.336;2024-02-26T14:41:40;17.70;99.90
83019;DHT22;72834;40.104;18.336;2024-02-26T14:44:06;17.70;99.90
83019;DHT22;72834;40.104;18.336;2024-02-26T14:46:32;17.70;99.90
83019;DHT22;72834;40.104;18.336;2024-02-26T14:48:59;17.60;99.90
83019;DHT22;72834;40.104;18.336;2024-02-26T14:51:25;17.60;99.90
83019;DHT22;72834;40.104;18.336;2024-02-26T14:53:52;17.50;99.90
83019;DHT22;72834;40.104;18.336;2024-02-26T14:56:19;17.50;99.90
83019;DHT22;72834;40.104;18.336;2024-02-26T14:58:45;17.50;99.90
83019;DHT22;72834;40.104;18.336;2024-02-26T15:01:11;17.40;99.90
83019;DHT22;72834;40.104;18.336;2024-02-26T15:03:38;17.50;99.90
83019;DHT22;72834;40.104;18.336;2024-02-26T15:06:04;17.40;99.90
83019;DHT22;72834;40.104;18.336;2024-02-26T15:08:31;17.40;99.90
83019;DHT22;72834;40.104;18.336;2024-02-26T15:10:58;17.40;99.90
83019;DHT22;72834;40.104;18.336;2024-02-26T15:13:24;17.30;99.90
83019;DHT22;72834;40.104;18.336;2024-02-26T15:15:50;17.30;99.90
83019;DHT22;72834;40.104;18.336;2024-02-26T15:18:16;17.30;99.90
83019;DHT22;72834;40.104;18.336;2024-02-26T15:20:43;17.30;99.90
83019;DHT22;72834;40.104;18.336;2024-02-26T15:23:09;17.30;99.90
83019;DHT22;72834;40.104;18.336;2024-02-26T15:25:36;17.20;99.90
83019;DHT22;72834;40.104;18.336;2024-02-26T15:28:02;17.20;99.90
83019;DHT22;72834;40.104;18.336;2024-02-26T15:30:28;17.10;99.90